D/T METAR WX W/DIR W/SPE G/SPE TEMP DEWP
23/05/19 13:20 EGNJ 231220Z 22010KT 9999 FEW020 SCT041 18/08 Q1015 SW (220°) 11.5mph 18°C 8°C
23/05/19 12:50 EGNJ 231150Z 22009KT 9999 FEW020 SCT041 18/07 Q1015 SW (220°) 10.4mph 18°C 7°C
23/05/19 11:50 EGNJ 231050Z 24009KT 9999 FEW020 SCT041 17/06 Q1016 WSW (240°) 10.4mph 17°C 6°C
23/05/19 11:20 EGNJ 231020Z 23009KT 9999 FEW020 SCT045 17/07 Q1016 SW (230°) 10.4mph 17°C 7°C
23/05/19 10:50 EGNJ 230950Z 23010KT CAVOK 16/06 Q1016 SW (230°) 11.5mph 16°C 6°C
23/05/19 10:20 EGNJ 230920Z 22010KT CAVOK 16/08 Q1016 SW (220°) 11.5mph 16°C 8°C
23/05/19 09:20 EGNJ 230820Z 22006KT 160V240 CAVOK 14/07 Q1016 SW (220°) 6.9mph 14°C 7°C
23/05/19 08:50 EGNJ 230750Z 23008KT CAVOK 13/08 Q1016 SW (230°) 9.2mph 13°C 8°C
23/05/19 08:20 EGNJ 230720Z 24008KT CAVOK 13/07 Q1016 WSW (240°) 9.2mph 13°C 7°C
23/05/19 07:20 EGNJ 230620Z 21007KT 9999 FEW045 11/08 Q1016 SSW (210°) 8.1mph 11°C 8°C
23/05/19 06:50 EGNJ 230550Z 21007KT 9999 FEW045 10/07 Q1016 SSW (210°) 8.1mph 10°C 7°C
23/05/19 06:20 EGNJ 230520Z 22005KT 9999 FEW045 10/07 Q1016 SW (220°) 5.8mph 10°C 7°C
23/05/19 05:50 EGNJ 230450Z 22004KT 9999 FEW045 09/06 Q1016 SW (220°) 4.6mph 9°C 6°C
23/05/19 05:20 EGNJ 230420Z AUTO 21004KT 9999 NCD 08/06 Q1016 SSW (210°) 4.6mph 8°C 6°C
23/05/19 04:50 EGNJ 230350Z AUTO 19004KT 9999 NCD 08/06 Q1016 S (190°) 4.6mph 8°C 6°C
23/05/19 04:20 EGNJ 230320Z AUTO VRB01KT 9999 NCD 09/06 Q1016 N (0°) 1.2mph 9°C 6°C
23/05/19 03:50 EGNJ 230250Z AUTO VRB02KT 9999 NCD 09/07 Q1016 N (0°) 2.3mph 9°C 7°C
23/05/19 03:20 EGNJ 230220Z AUTO 25003KT 9999 NCD 10/07 Q1016 WSW (250°) 3.5mph 10°C 7°C
23/05/19 02:50 EGNJ 230150Z AUTO 23004KT 9999 NCD 10/07 Q1016 SW (230°) 4.6mph 10°C 7°C
23/05/19 01:50 EGNJ 230050Z AUTO 26006KT 9999 NCD 10/07 Q1017 W (260°) 6.9mph 10°C 7°C
23/05/19 01:20 EGNJ 230020Z AUTO 22007KT 9999 NCD 09/07 Q1017 SW (220°) 8.1mph 9°C 7°C
23/05/19 00:50 EGNJ 222350Z AUTO 25004KT 9999 NCD 11/07 Q1017 WSW (250°) 4.6mph 11°C 7°C
23/05/19 00:20 EGNJ 222320Z AUTO 27004KT 9999 NCD 11/08 Q1017 W (270°) 4.6mph 11°C 8°C
22/05/19 23:50 EGNJ 222250Z AUTO 22004KT 9999 NCD 09/07 Q1017 SW (220°) 4.6mph 9°C 7°C
22/05/19 23:20 EGNJ 222220Z AUTO 23003KT 9999 NCD 10/08 Q1017 SW (230°) 3.5mph 10°C 8°C
22/05/19 22:50 EGNJ 222150Z AUTO VRB02KT 9999 NCD 10/07 Q1017 N (0°) 2.3mph 10°C 7°C
22/05/19 22:20 EGNJ 222120Z AUTO 26007KT 9999 NCD 13/09 Q1017 W (260°) 8.1mph 13°C 9°C
22/05/19 21:50 EGNJ 222050Z AUTO 27006KT 9999 NCD 13/09 Q1017 W (270°) 6.9mph 13°C 9°C
22/05/19 21:20 EGNJ 222020Z 26004KT CAVOK 14/09 Q1017 W (260°) 4.6mph 14°C 9°C
22/05/19 20:50 EGNJ 221950Z 26003KT 9999 FEW025 15/10 Q1017 W (260°) 3.5mph 15°C 10°C
22/05/19 20:20 EGNJ 221920Z 25006KT 9999 FEW025 16/10 Q1016 WSW (250°) 6.9mph 16°C 10°C
22/05/19 19:50 EGNJ 221850Z 25006KT 9999 FEW025 16/11 Q1016 WSW (250°) 6.9mph 16°C 11°C
22/05/19 19:20 EGNJ 221820Z 24009KT 9999 VCSH FEW025 SCT044 16/11 Q1016 VCSH WSW (240°) 10.4mph 16°C 11°C
22/05/19 18:50 EGNJ 221750Z 23007KT 9999 VCSH SCT047 16/11 Q1017 VCSH SW (230°) 8.1mph 16°C 11°C
22/05/19 17:50 EGNJ 221650Z 23009KT 9999 FEW030 SCT048 17/10 Q1017 SW (230°) 10.4mph 17°C 10°C
22/05/19 17:20 EGNJ 221620Z 22011KT 9999 -SHRA FEW030 SCT048 18/08 Q1017 -SHRA SW (220°) 12.7mph 18°C 8°C
22/05/19 16:50 EGNJ 221550Z 24010KT 9999 FEW025 SCT045 19/07 Q1017 WSW (240°) 11.5mph 19°C 7°C
22/05/19 16:20 EGNJ 221520Z 23013KT 200V270 9999 FEW025 SCT045 20/06 Q1017 SW (230°) 15.0mph 20°C 6°C
22/05/19 15:50 EGNJ 221450Z 23012KT 9999 FEW025 SCT038 19/05 Q1017 SW (230°) 13.8mph 19°C 5°C
22/05/19 15:20 EGNJ 221420Z 22015KT 9999 FEW025 SCT038 19/05 Q1017 SW (220°) 17.3mph 19°C 5°C
22/05/19 14:50 EGNJ 221350Z 23014KT 9999 FEW038 SCT049 18/06 Q1017 SW (230°) 16.1mph 18°C 6°C
22/05/19 14:20 EGNJ 221320Z 23014KT 9999 FEW038 SCT044 18/06 Q1018 SW (230°) 16.1mph 18°C 6°C
22/05/19 13:50 EGNJ 221250Z 23015KT 9999 SCT030 18/07 Q1018 SW (230°) 17.3mph 18°C 7°C
22/05/19 13:20 EGNJ 221220Z 22012KT 9999 SCT030 17/07 Q1018 SW (220°) 13.8mph 17°C 7°C
22/05/19 12:50 EGNJ 221150Z 22012KT 9999 FEW020 SCT036 17/08 Q1018 SW (220°) 13.8mph 17°C 8°C
22/05/19 12:20 EGNJ 221120Z 24011KT 9999 FEW020 SCT036 16/07 Q1018 WSW (240°) 12.7mph 16°C 7°C
22/05/19 11:50 EGNJ 221050Z 23010KT 190V260 9999 FEW028 16/07 Q1018 SW (230°) 11.5mph 16°C 7°C
22/05/19 11:20 EGNJ 221020Z 22009KT 190V260 9999 FEW020 15/08 Q1019 SW (220°) 10.4mph 15°C 8°C